Kanaskat, Washington
Current Conditions -  °F | °C
As of 10:53 PM on Thursday 27 Nov 2014 (Local Time) from KRNT Reporting Station
Light Rain Light Rain  
Wind Chill: 57°   Ceiling: 2800
Heat Index: 57°   Visibility: 10mi
Dew Point: 50°   Wind: 13mph
Humidity: 77%   Direction: 170°S
Pressure: 29.7"   Gusts: NA
Location:  47.3777°N, 121.913°W
Report Text: KRNT 280653Z AUTO 17011KT 10SM -RA OVC028 14/10 A2970 RMK AO2 RAB02E16B49 SLP063 P0000 T01390100
Loading
Personal Weather Stations






























Interactive Weather Map New forecast layout! Learn more

10-Day Weather Forecast

Advertisements
Track Severe Weather on mobile